Aviation Digital Data Service (ADDS)

Output produced by METARs form (0850 UTC 03 September 2015)
found at http://aviationweather.gov/adds/metars/
 
KFAY 030527Z 0306/0406 VRB05KT P6SM FEW060 BKN250 
     TEMPO 0306/0308 VRB12G22KT 5SM -SHRA BKN035 
     FM030900 VRB04KT P6SM FEW060 SCT250 
     FM031800 29007KT P6SM SCT060 BKN250